sensor_id;sensor_type;location;lat;lon;timestamp;P1;durP1;ratioP1;P2;durP2;ratioP2
18304;SDS011;9278;52.156;21.048;2023-02-01T00:01:22;10.77;;;5.90;;
18304;SDS011;9278;52.156;21.048;2023-02-01T00:03:50;9.50;;;5.83;;
18304;SDS011;9278;52.156;21.048;2023-02-01T00:06:19;13.33;;;6.13;;
18304;SDS011;9278;52.156;21.048;2023-02-01T00:08:47;10.03;;;5.73;;
18304;SDS011;9278;52.156;21.048;2023-02-01T00:11:16;12.52;;;6.15;;
18304;SDS011;9278;52.156;21.048;2023-02-01T00:13:45;8.80;;;5.90;;
18304;SDS011;9278;52.156;21.048;2023-02-01T00:16:14;9.37;;;5.87;;
18304;SDS011;9278;52.156;21.048;2023-02-01T00:18:45;7.87;;;5.33;;
18304;SDS011;9278;52.156;21.048;2023-02-01T00:21:14;8.83;;;5.30;;
18304;SDS011;9278;52.156;21.048;2023-02-01T00:23:44;7.30;;;4.93;;
18304;SDS011;9278;52.156;21.048;2023-02-01T00:26:13;10.73;;;5.43;;
18304;SDS011;9278;52.156;21.048;2023-02-01T00:28:43;8.80;;;5.07;;
18304;SDS011;9278;52.156;21.048;2023-02-01T00:31:13;6.57;;;4.43;;
18304;SDS011;9278;52.156;21.048;2023-02-01T00:33:42;7.23;;;4.67;;
18304;SDS011;9278;52.156;21.048;2023-02-01T00:36:14;5.97;;;3.97;;
18304;SDS011;9278;52.156;21.048;2023-02-01T00:38:43;5.27;;;3.57;;
18304;SDS011;9278;52.156;21.048;2023-02-01T00:41:12;5.70;;;3.80;;
18304;SDS011;9278;52.156;21.048;2023-02-01T00:43:42;6.20;;;3.20;;
18304;SDS011;9278;52.156;21.048;2023-02-01T00:46:13;7.13;;;3.90;;
18304;SDS011;9278;52.156;21.048;2023-02-01T00:48:43;5.67;;;4.10;;
18304;SDS011;9278;52.156;21.048;2023-02-01T00:51:12;7.63;;;4.00;;
18304;SDS011;9278;52.156;21.048;2023-02-01T00:53:42;7.27;;;4.10;;
18304;SDS011;9278;52.156;21.048;2023-02-01T00:56:11;6.80;;;3.80;;
18304;SDS011;9278;52.156;21.048;2023-02-01T00:58:40;7.60;;;4.20;;
18304;SDS011;9278;52.156;21.048;2023-02-01T01:01:14;6.80;;;3.73;;
18304;SDS011;9278;52.156;21.048;2023-02-01T01:03:45;6.83;;;3.70;;
18304;SDS011;9278;52.156;21.048;2023-02-01T01:06:16;6.50;;;3.40;;
18304;SDS011;9278;52.156;21.048;2023-02-01T01:08:47;6.50;;;3.20;;
18304;SDS011;9278;52.156;21.048;2023-02-01T01:11:20;3.73;;;2.00;;
18304;SDS011;9278;52.156;21.048;2023-02-01T01:13:50;6.23;;;2.43;;
18304;SDS011;9278;52.156;21.048;2023-02-01T01:16:21;4.10;;;2.33;;
18304;SDS011;9278;52.156;21.048;2023-02-01T01:18:51;6.63;;;2.03;;
18304;SDS011;9278;52.156;21.048;2023-02-01T01:21:19;4.40;;;1.60;;
18304;SDS011;9278;52.156;21.048;2023-02-01T01:23:47;5.27;;;1.60;;
18304;SDS011;9278;52.156;21.048;2023-02-01T01:26:16;6.63;;;1.80;;
18304;SDS011;9278;52.156;21.048;2023-02-01T01:28:46;5.33;;;1.63;;
18304;SDS011;9278;52.156;21.048;2023-02-01T01:31:15;5.20;;;1.47;;
18304;SDS011;9278;52.156;21.048;2023-02-01T01:33:49;6.17;;;1.73;;
18304;SDS011;9278;52.156;21.048;2023-02-01T01:36:18;2.73;;;1.30;;
18304;SDS011;9278;52.156;21.048;2023-02-01T01:38:47;5.50;;;1.60;;
18304;SDS011;9278;52.156;21.048;2023-02-01T01:41:18;8.40;;;1.90;;
18304;SDS011;9278;52.156;21.048;2023-02-01T01:43:49;6.53;;;1.60;;
18304;SDS011;9278;52.156;21.048;2023-02-01T01:46:22;5.30;;;2.00;;
18304;SDS011;9278;52.156;21.048;2023-02-01T01:48:55;6.13;;;1.80;;
18304;SDS011;9278;52.156;21.048;2023-02-01T01:51:30;9.63;;;1.90;;
18304;SDS011;9278;52.156;21.048;2023-02-01T01:54:05;7.90;;;1.83;;
18304;SDS011;9278;52.156;21.048;2023-02-01T01:56:39;9.23;;;2.47;;
18304;SDS011;9278;52.156;21.048;2023-02-01T01:59:08;5.67;;;2.00;;
18304;SDS011;9278;52.156;21.048;2023-02-01T02:01:37;6.17;;;2.00;;
18304;SDS011;9278;52.156;21.048;2023-02-01T02:04:07;6.97;;;2.17;;
18304;SDS011;9278;52.156;21.048;2023-02-01T02:06:38;7.80;;;2.00;;
18304;SDS011;9278;52.156;21.048;2023-02-01T02:09:11;7.70;;;2.30;;
18304;SDS011;9278;52.156;21.048;2023-02-01T02:11:40;11.17;;;2.67;;
18304;SDS011;9278;52.156;21.048;2023-02-01T02:14:09;12.50;;;2.50;;
18304;SDS011;9278;52.156;21.048;2023-02-01T02:16:47;11.27;;;2.47;;
18304;SDS011;9278;52.156;21.048;2023-02-01T02:19:45;8.93;;;2.30;;
18304;SDS011;9278;52.156;21.048;2023-02-01T02:22:46;11.60;;;2.60;;
18304;SDS011;9278;52.156;21.048;2023-02-01T02:25:42;8.73;;;2.43;;
18304;SDS011;9278;52.156;21.048;2023-02-01T02:28:30;10.50;;;2.23;;
18304;SDS011;9278;52.156;21.048;2023-02-01T02:31:25;7.27;;;2.40;;
18304;SDS011;9278;52.156;21.048;2023-02-01T02:34:18;13.50;;;2.70;;
18304;SDS011;9278;52.156;21.048;2023-02-01T02:36:55;10.43;;;2.80;;
18304;SDS011;9278;52.156;21.048;2023-02-01T02:39:35;14.50;;;2.58;;
18304;SDS011;9278;52.156;21.048;2023-02-01T02:42:12;13.40;;;3.07;;
18304;SDS011;9278;52.156;21.048;2023-02-01T02:45:04;10.80;;;2.87;;
18304;SDS011;9278;52.156;21.048;2023-02-01T02:47:54;12.20;;;3.07;;
18304;SDS011;9278;52.156;21.048;2023-02-01T02:50:26;14.02;;;2.45;;
18304;SDS011;9278;52.156;21.048;2023-02-01T02:53:16;8.88;;;2.58;;
18304;SDS011;9278;52.156;21.048;2023-02-01T02:56:05;11.02;;;2.42;;
18304;SDS011;9278;52.156;21.048;2023-02-01T02:58:53;12.77;;;3.10;;
18304;SDS011;9278;52.156;21.048;2023-02-01T03:01:39;10.90;;;2.50;;
18304;SDS011;9278;52.156;21.048;2023-02-01T03:04:26;12.33;;;2.80;;
18304;SDS011;9278;52.156;21.048;2023-02-01T03:06:55;9.30;;;2.30;;
18304;SDS011;9278;52.156;21.048;2023-02-01T03:09:25;14.33;;;2.17;;
18304;SDS011;9278;52.156;21.048;2023-02-01T03:11:58;11.40;;;2.10;;
18304;SDS011;9278;52.156;21.048;2023-02-01T03:14:49;16.30;;;2.63;;
18304;SDS011;9278;52.156;21.048;2023-02-01T03:17:21;11.53;;;2.60;;
18304;SDS011;9278;52.156;21.048;2023-02-01T03:19:55;14.47;;;2.20;;
18304;SDS011;9278;52.156;21.048;2023-02-01T03:22:28;13.55;;;2.53;;
18304;SDS011;9278;52.156;21.048;2023-02-01T03:25:01;9.87;;;2.40;;
18304;SDS011;9278;52.156;21.048;2023-02-01T03:27:40;11.82;;;2.30;;
18304;SDS011;9278;52.156;21.048;2023-02-01T03:30:10;13.70;;;3.47;;
18304;SDS011;9278;52.156;21.048;2023-02-01T03:32:47;11.93;;;2.15;;
18304;SDS011;9278;52.156;21.048;2023-02-01T03:35:32;9.43;;;2.58;;
18304;SDS011;9278;52.156;21.048;2023-02-01T03:38:07;9.97;;;2.87;;
18304;SDS011;9278;52.156;21.048;2023-02-01T03:40:45;11.50;;;2.53;;
18304;SDS011;9278;52.156;21.048;2023-02-01T03:43:21;10.65;;;2.78;;
18304;SDS011;9278;52.156;21.048;2023-02-01T03:45:54;13.85;;;2.30;;
18304;SDS011;9278;52.156;21.048;2023-02-01T03:48:28;13.30;;;2.73;;
18304;SDS011;9278;52.156;21.048;2023-02-01T03:51:00;11.77;;;2.70;;
18304;SDS011;9278;52.156;21.048;2023-02-01T03:53:32;14.10;;;3.07;;
18304;SDS011;9278;52.156;21.048;2023-02-01T03:56:05;10.23;;;2.53;;
18304;SDS011;9278;52.156;21.048;2023-02-01T03:58:34;13.63;;;2.73;;
18304;SDS011;9278;52.156;21.048;2023-02-01T04:01:02;14.83;;;2.67;;
18304;SDS011;9278;52.156;21.048;2023-02-01T04:03:34;6.60;;;2.17;;
18304;SDS011;9278;52.156;21.048;2023-02-01T04:06:03;10.73;;;2.47;;
18304;SDS011;9278;52.156;21.048;2023-02-01T04:08:33;15.00;;;2.33;;
18304;SDS011;9278;52.156;21.048;2023-02-01T04:11:01;14.80;;;2.87;;
18304;SDS011;9278;52.156;21.048;2023-02-01T04:13:30;14.50;;;2.73;;
18304;SDS011;9278;52.156;21.048;2023-02-01T04:15:58;17.50;;;2.50;;
18304;SDS011;9278;52.156;21.048;2023-02-01T04:18:26;12.57;;;2.57;;
18304;SDS011;9278;52.156;21.048;2023-02-01T04:20:55;15.10;;;2.80;;
18304;SDS011;9278;52.156;21.048;2023-02-01T04:23:23;8.97;;;2.20;;
18304;SDS011;9278;52.156;21.048;2023-02-01T04:25:52;26.87;;;2.23;;
18304;SDS011;9278;52.156;21.048;2023-02-01T04:28:22;7.57;;;2.00;;
18304;SDS011;9278;52.156;21.048;2023-02-01T04:30:50;16.00;;;2.57;;
18304;SDS011;9278;52.156;21.048;2023-02-01T04:33:18;11.20;;;2.13;;
18304;SDS011;9278;52.156;21.048;2023-02-01T04:35:47;13.33;;;2.53;;
18304;SDS011;9278;52.156;21.048;2023-02-01T04:38:15;12.03;;;2.33;;
18304;SDS011;9278;52.156;21.048;2023-02-01T04:40:46;11.27;;;2.13;;
18304;SDS011;9278;52.156;21.048;2023-02-01T04:43:16;15.47;;;2.63;;
18304;SDS011;9278;52.156;21.048;2023-02-01T04:45:48;7.80;;;1.77;;
18304;SDS011;9278;52.156;21.048;2023-02-01T04:48:17;15.87;;;3.70;;
18304;SDS011;9278;52.156;21.048;2023-02-01T04:50:49;10.47;;;1.97;;
18304;SDS011;9278;52.156;21.048;2023-02-01T04:53:17;11.27;;;2.37;;
18304;SDS011;9278;52.156;21.048;2023-02-01T04:55:47;13.23;;;2.60;;
18304;SDS011;9278;52.156;21.048;2023-02-01T04:58:17;13.30;;;2.50;;
18304;SDS011;9278;52.156;21.048;2023-02-01T05:00:46;11.17;;;2.27;;
18304;SDS011;9278;52.156;21.048;2023-02-01T05:03:14;18.83;;;2.60;;
18304;SDS011;9278;52.156;21.048;2023-02-01T05:05:42;18.00;;;2.47;;
18304;SDS011;9278;52.156;21.048;2023-02-01T05:08:10;14.03;;;2.30;;
18304;SDS011;9278;52.156;21.048;2023-02-01T05:10:39;9.37;;;2.07;;
18304;SDS011;9278;52.156;21.048;2023-02-01T05:13:07;10.20;;;2.20;;
18304;SDS011;9278;52.156;21.048;2023-02-01T05:15:54;7.97;;;2.00;;
18304;SDS011;9278;52.156;21.048;2023-02-01T05:18:23;9.70;;;2.27;;
18304;SDS011;9278;52.156;21.048;2023-02-01T05:20:51;14.20;;;2.50;;
18304;SDS011;9278;52.156;21.048;2023-02-01T05:23:19;19.60;;;2.30;;
18304;SDS011;9278;52.156;21.048;2023-02-01T05:25:47;14.00;;;2.37;;
18304;SDS011;9278;52.156;21.048;2023-02-01T05:28:16;14.87;;;2.47;;
18304;SDS011;9278;52.156;21.048;2023-02-01T05:30:44;13.07;;;2.70;;
18304;SDS011;9278;52.156;21.048;2023-02-01T05:33:14;12.67;;;2.20;;
18304;SDS011;9278;52.156;21.048;2023-02-01T05:35:42;9.33;;;2.43;;
18304;SDS011;9278;52.156;21.048;2023-02-01T05:38:10;12.57;;;2.67;;
18304;SDS011;9278;52.156;21.048;2023-02-01T05:40:38;14.03;;;2.40;;
18304;SDS011;9278;52.156;21.048;2023-02-01T05:43:06;13.03;;;2.43;;
18304;SDS011;9278;52.156;21.048;2023-02-01T05:45:35;12.80;;;2.73;;
18304;SDS011;9278;52.156;21.048;2023-02-01T05:48:03;16.50;;;2.43;;
18304;SDS011;9278;52.156;21.048;2023-02-01T05:50:33;11.00;;;2.10;;
18304;SDS011;9278;52.156;21.048;2023-02-01T05:53:07;12.13;;;2.70;;
18304;SDS011;9278;52.156;21.048;2023-02-01T05:55:36;16.30;;;2.93;;
18304;SDS011;9278;52.156;21.048;2023-02-01T05:58:05;7.97;;;2.40;;
18304;SDS011;9278;52.156;21.048;2023-02-01T06:00:33;9.13;;;2.77;;
18304;SDS011;9278;52.156;21.048;2023-02-01T06:03:01;10.33;;;2.50;;
18304;SDS011;9278;52.156;21.048;2023-02-01T06:05:29;16.30;;;2.60;;
18304;SDS011;9278;52.156;21.048;2023-02-01T06:07:59;13.67;;;2.67;;
18304;SDS011;9278;52.156;21.048;2023-02-01T06:10:27;13.37;;;2.37;;
18304;SDS011;9278;52.156;21.048;2023-02-01T06:12:56;11.13;;;2.40;;
18304;SDS011;9278;52.156;21.048;2023-02-01T06:15:24;12.80;;;2.10;;
18304;SDS011;9278;52.156;21.048;2023-02-01T06:17:52;15.50;;;2.50;;
18304;SDS011;9278;52.156;21.048;2023-02-01T06:20:21;9.47;;;2.30;;
18304;SDS011;9278;52.156;21.048;2023-02-01T06:22:49;16.03;;;2.67;;
18304;SDS011;9278;52.156;21.048;2023-02-01T06:25:20;14.47;;;2.47;;
18304;SDS011;9278;52.156;21.048;2023-02-01T06:27:48;13.67;;;2.80;;
18304;SDS011;9278;52.156;21.048;2023-02-01T06:30:17;14.17;;;2.60;;
18304;SDS011;9278;52.156;21.048;2023-02-01T06:32:49;13.23;;;2.57;;
18304;SDS011;9278;52.156;21.048;2023-02-01T06:35:20;13.97;;;2.87;;
18304;SDS011;9278;52.156;21.048;2023-02-01T06:37:48;17.93;;;2.77;;
18304;SDS011;9278;52.156;21.048;2023-02-01T06:40:16;13.10;;;2.60;;
18304;SDS011;9278;52.156;21.048;2023-02-01T06:42:46;14.60;;;2.47;;
18304;SDS011;9278;52.156;21.048;2023-02-01T06:45:16;10.40;;;2.40;;
18304;SDS011;9278;52.156;21.048;2023-02-01T06:47:44;6.43;;;2.17;;
18304;SDS011;9278;52.156;21.048;2023-02-01T06:50:12;13.47;;;2.40;;
18304;SDS011;9278;52.156;21.048;2023-02-01T06:52:40;17.07;;;2.40;;
18304;SDS011;9278;52.156;21.048;2023-02-01T06:55:09;16.30;;;2.50;;
18304;SDS011;9278;52.156;21.048;2023-02-01T06:57:37;11.40;;;2.40;;
18304;SDS011;9278;52.156;21.048;2023-02-01T07:00:07;10.47;;;2.00;;
18304;SDS011;9278;52.156;21.048;2023-02-01T07:02:36;13.73;;;2.40;;
18304;SDS011;9278;52.156;21.048;2023-02-01T07:05:05;12.53;;;2.17;;
18304;SDS011;9278;52.156;21.048;2023-02-01T07:07:34;22.10;;;2.80;;
18304;SDS011;9278;52.156;21.048;2023-02-01T07:10:02;8.63;;;2.40;;
18304;SDS011;9278;52.156;21.048;2023-02-01T07:12:31;13.07;;;2.20;;
18304;SDS011;9278;52.156;21.048;2023-02-01T07:14:59;20.17;;;2.70;;
18304;SDS011;9278;52.156;21.048;2023-02-01T07:17:30;14.03;;;2.30;;
18304;SDS011;9278;52.156;21.048;2023-02-01T07:19:58;15.10;;;2.30;;
18304;SDS011;9278;52.156;21.048;2023-02-01T07:22:28;16.83;;;3.03;;
18304;SDS011;9278;52.156;21.048;2023-02-01T07:24:56;19.20;;;2.97;;
18304;SDS011;9278;52.156;21.048;2023-02-01T07:27:24;13.37;;;2.13;;
18304;SDS011;9278;52.156;21.048;2023-02-01T07:29:53;14.87;;;2.20;;
18304;SDS011;9278;52.156;21.048;2023-02-01T07:32:22;13.43;;;2.67;;
18304;SDS011;9278;52.156;21.048;2023-02-01T07:34:51;10.02;;;2.53;;
18304;SDS011;9278;52.156;21.048;2023-02-01T07:37:19;19.38;;;2.60;;
18304;SDS011;9278;52.156;21.048;2023-02-01T07:39:48;14.25;;;2.53;;
18304;SDS011;9278;52.156;21.048;2023-02-01T07:42:16;11.73;;;2.47;;
18304;SDS011;9278;52.156;21.048;2023-02-01T07:44:44;19.35;;;2.88;;
18304;SDS011;9278;52.156;21.048;2023-02-01T07:47:12;14.33;;;2.40;;
18304;SDS011;9278;52.156;21.048;2023-02-01T07:49:41;17.52;;;3.10;;
18304;SDS011;9278;52.156;21.048;2023-02-01T07:52:10;13.57;;;2.53;;
18304;SDS011;9278;52.156;21.048;2023-02-01T07:54:39;8.00;;;2.17;;
18304;SDS011;9278;52.156;21.048;2023-02-01T07:57:07;13.52;;;2.28;;
18304;SDS011;9278;52.156;21.048;2023-02-01T07:59:38;13.63;;;2.70;;
18304;SDS011;9278;52.156;21.048;2023-02-01T08:02:26;23.15;;;3.17;;
18304;SDS011;9278;52.156;21.048;2023-02-01T08:04:54;21.63;;;3.35;;
18304;SDS011;9278;52.156;21.048;2023-02-01T08:07:23;18.67;;;2.50;;
18304;SDS011;9278;52.156;21.048;2023-02-01T08:09:52;16.92;;;2.50;;
18304;SDS011;9278;52.156;21.048;2023-02-01T08:12:20;15.63;;;2.80;;
18304;SDS011;9278;52.156;21.048;2023-02-01T08:14:50;10.30;;;2.53;;
18304;SDS011;9278;52.156;21.048;2023-02-01T08:17:20;14.30;;;2.77;;
18304;SDS011;9278;52.156;21.048;2023-02-01T08:19:48;17.97;;;2.97;;
18304;SDS011;9278;52.156;21.048;2023-02-01T08:22:16;13.27;;;2.30;;
18304;SDS011;9278;52.156;21.048;2023-02-01T08:24:48;13.60;;;2.90;;
18304;SDS011;9278;52.156;21.048;2023-02-01T08:27:16;18.13;;;2.53;;
18304;SDS011;9278;52.156;21.048;2023-02-01T08:29:45;11.20;;;2.50;;
18304;SDS011;9278;52.156;21.048;2023-02-01T08:32:13;13.63;;;2.90;;
18304;SDS011;9278;52.156;21.048;2023-02-01T08:34:41;20.20;;;3.15;;
18304;SDS011;9278;52.156;21.048;2023-02-01T08:37:10;16.50;;;3.23;;
18304;SDS011;9278;52.156;21.048;2023-02-01T08:39:38;10.90;;;2.50;;
18304;SDS011;9278;52.156;21.048;2023-02-01T08:42:14;14.52;;;2.90;;
18304;SDS011;9278;52.156;21.048;2023-02-01T08:45:00;12.05;;;2.47;;
18304;SDS011;9278;52.156;21.048;2023-02-01T08:47:28;13.53;;;2.40;;
18304;SDS011;9278;52.156;21.048;2023-02-01T08:49:57;12.77;;;2.60;;
18304;SDS011;9278;52.156;21.048;2023-02-01T08:52:25;17.57;;;3.83;;
18304;SDS011;9278;52.156;21.048;2023-02-01T08:54:54;13.55;;;2.47;;
18304;SDS011;9278;52.156;21.048;2023-02-01T08:57:23;13.43;;;2.67;;
18304;SDS011;9278;52.156;21.048;2023-02-01T08:59:52;12.77;;;2.55;;
18304;SDS011;9278;52.156;21.048;2023-02-01T09:02:20;10.70;;;2.37;;
18304;SDS011;9278;52.156;21.048;2023-02-01T09:04:48;19.17;;;2.95;;
18304;SDS011;9278;52.156;21.048;2023-02-01T09:07:16;13.95;;;2.65;;
18304;SDS011;9278;52.156;21.048;2023-02-01T09:09:45;13.23;;;2.70;;
18304;SDS011;9278;52.156;21.048;2023-02-01T09:12:14;13.10;;;2.78;;
18304;SDS011;9278;52.156;21.048;2023-02-01T09:14:43;13.02;;;2.25;;
18304;SDS011;9278;52.156;21.048;2023-02-01T09:17:11;16.33;;;2.80;;
18304;SDS011;9278;52.156;21.048;2023-02-01T09:19:40;15.93;;;3.33;;
18304;SDS011;9278;52.156;21.048;2023-02-01T09:22:08;12.93;;;2.87;;
18304;SDS011;9278;52.156;21.048;2023-02-01T09:24:36;15.77;;;2.75;;
18304;SDS011;9278;52.156;21.048;2023-02-01T09:27:05;14.90;;;3.33;;
18304;SDS011;9278;52.156;21.048;2023-02-01T09:29:33;15.32;;;3.05;;
18304;SDS011;9278;52.156;21.048;2023-02-01T09:32:03;10.07;;;2.55;;
18304;SDS011;9278;52.156;21.048;2023-02-01T09:34:33;18.33;;;2.97;;
18304;SDS011;9278;52.156;21.048;2023-02-01T09:37:02;14.10;;;2.70;;
18304;SDS011;9278;52.156;21.048;2023-02-01T09:39:31;12.75;;;2.67;;
18304;SDS011;9278;52.156;21.048;2023-02-01T09:42:05;15.10;;;3.13;;
18304;SDS011;9278;52.156;21.048;2023-02-01T09:44:56;21.67;;;3.20;;
18304;SDS011;9278;52.156;21.048;2023-02-01T09:47:34;14.63;;;3.17;;
18304;SDS011;9278;52.156;21.048;2023-02-01T09:50:04;12.88;;;3.35;;
18304;SDS011;9278;52.156;21.048;2023-02-01T09:52:38;14.65;;;2.97;;
18304;SDS011;9278;52.156;21.048;2023-02-01T09:55:11;15.25;;;2.65;;
18304;SDS011;9278;52.156;21.048;2023-02-01T09:57:44;11.40;;;2.90;;
18304;SDS011;9278;52.156;21.048;2023-02-01T10:00:17;13.63;;;2.67;;
18304;SDS011;9278;52.156;21.048;2023-02-01T10:02:54;15.38;;;3.22;;
18304;SDS011;9278;52.156;21.048;2023-02-01T10:05:28;14.75;;;3.17;;
18304;SDS011;9278;52.156;21.048;2023-02-01T10:08:09;17.25;;;3.65;;
18304;SDS011;9278;52.156;21.048;2023-02-01T10:10:45;10.68;;;2.47;;
18304;SDS011;9278;52.156;21.048;2023-02-01T10:13:19;11.43;;;3.53;;
18304;SDS011;9278;52.156;21.048;2023-02-01T10:16:06;15.27;;;3.20;;
18304;SDS011;9278;52.156;21.048;2023-02-01T10:21:47;17.30;;;3.38;;
18304;SDS011;9278;52.156;21.048;2023-02-01T10:24:25;12.90;;;2.85;;
18304;SDS011;9278;52.156;21.048;2023-02-01T10:27:12;17.83;;;3.30;;
18304;SDS011;9278;52.156;21.048;2023-02-01T10:29:45;13.63;;;2.70;;
18304;SDS011;9278;52.156;21.048;2023-02-01T10:32:20;20.98;;;3.25;;
18304;SDS011;9278;52.156;21.048;2023-02-01T10:34:55;16.10;;;2.97;;
18304;SDS011;9278;52.156;21.048;2023-02-01T10:37:27;17.77;;;3.45;;
18304;SDS011;9278;52.156;21.048;2023-02-01T10:39:59;17.17;;;2.92;;
18304;SDS011;9278;52.156;21.048;2023-02-01T10:42:32;17.50;;;4.18;;
18304;SDS011;9278;52.156;21.048;2023-02-01T10:45:00;15.75;;;3.03;;
18304;SDS011;9278;52.156;21.048;2023-02-01T10:47:30;16.65;;;3.28;;
18304;SDS011;9278;52.156;21.048;2023-02-01T10:50:02;11.88;;;2.97;;
18304;SDS011;9278;52.156;21.048;2023-02-01T10:52:43;14.07;;;3.05;;
18304;SDS011;9278;52.156;21.048;2023-02-01T10:55:38;11.85;;;3.10;;
18304;SDS011;9278;52.156;21.048;2023-02-01T10:58:10;15.27;;;3.30;;
18304;SDS011;9278;52.156;21.048;2023-02-01T11:00:44;15.75;;;3.53;;
18304;SDS011;9278;52.156;21.048;2023-02-01T11:06:12;13.27;;;3.10;;
18304;SDS011;9278;52.156;21.048;2023-02-01T11:08:48;16.02;;;3.92;;
18304;SDS011;9278;52.156;21.048;2023-02-01T11:11:18;15.45;;;3.83;;
18304;SDS011;9278;52.156;21.048;2023-02-01T11:13:51;18.73;;;3.15;;
18304;SDS011;9278;52.156;21.048;2023-02-01T11:16:23;15.45;;;3.17;;
18304;SDS011;9278;52.156;21.048;2023-02-01T11:18:58;14.77;;;3.28;;
18304;SDS011;9278;52.156;21.048;2023-02-01T11:21:28;16.75;;;3.45;;
18304;SDS011;9278;52.156;21.048;2023-02-01T11:23:59;16.83;;;3.45;;
18304;SDS011;9278;52.156;21.048;2023-02-01T11:26:29;20.67;;;4.18;;
18304;SDS011;9278;52.156;21.048;2023-02-01T11:29:00;15.10;;;2.97;;
18304;SDS011;9278;52.156;21.048;2023-02-01T11:31:31;21.88;;;3.42;;
18304;SDS011;9278;52.156;21.048;2023-02-01T11:34:05;13.38;;;3.20;;
18304;SDS011;9278;52.156;21.048;2023-02-01T11:36:37;13.57;;;3.17;;
18304;SDS011;9278;52.156;21.048;2023-02-01T11:39:08;11.43;;;3.00;;
18304;SDS011;9278;52.156;21.048;2023-02-01T11:41:54;13.02;;;3.15;;
18304;SDS011;9278;52.156;21.048;2023-02-01T11:44:28;14.18;;;2.92;;
18304;SDS011;9278;52.156;21.048;2023-02-01T11:49:47;14.63;;;3.35;;
18304;SDS011;9278;52.156;21.048;2023-02-01T11:52:21;12.07;;;2.95;;
18304;SDS011;9278;52.156;21.048;2023-02-01T11:55:10;18.50;;;3.70;;
18304;SDS011;9278;52.156;21.048;2023-02-01T11:58:12;15.63;;;3.40;;
18304;SDS011;9278;52.156;21.048;2023-02-01T12:01:01;13.60;;;3.67;;
18304;SDS011;9278;52.156;21.048;2023-02-01T12:06:49;21.65;;;3.38;;
18304;SDS011;9278;52.156;21.048;2023-02-01T12:12:12;16.83;;;3.33;;
18304;SDS011;9278;52.156;21.048;2023-02-01T12:14:56;17.08;;;3.97;;
18304;SDS011;9278;52.156;21.048;2023-02-01T12:23:27;19.23;;;3.83;;
18304;SDS011;9278;52.156;21.048;2023-02-01T12:26:20;20.60;;;3.80;;
18304;SDS011;9278;52.156;21.048;2023-02-01T12:29:07;24.65;;;3.95;;
18304;SDS011;9278;52.156;21.048;2023-02-01T12:31:47;16.38;;;3.42;;
18304;SDS011;9278;52.156;21.048;2023-02-01T12:34:27;17.58;;;3.75;;
18304;SDS011;9278;52.156;21.048;2023-02-01T12:37:06;20.45;;;4.13;;
18304;SDS011;9278;52.156;21.048;2023-02-01T12:39:48;22.83;;;4.03;;
18304;SDS011;9278;52.156;21.048;2023-02-01T12:42:26;28.05;;;4.03;;
18304;SDS011;9278;52.156;21.048;2023-02-01T12:44:59;19.80;;;4.03;;
18304;SDS011;9278;52.156;21.048;2023-02-01T12:47:39;20.13;;;3.88;;
18304;SDS011;9278;52.156;21.048;2023-02-01T12:50:12;21.00;;;4.15;;
18304;SDS011;9278;52.156;21.048;2023-02-01T12:52:49;19.25;;;4.93;;
18304;SDS011;9278;52.156;21.048;2023-02-01T12:55:20;24.58;;;4.25;;
18304;SDS011;9278;52.156;21.048;2023-02-01T12:57:53;23.38;;;4.10;;
18304;SDS011;9278;52.156;21.048;2023-02-01T13:00:27;28.38;;;4.47;;
18304;SDS011;9278;52.156;21.048;2023-02-01T13:03:00;19.38;;;5.28;;
18304;SDS011;9278;52.156;21.048;2023-02-01T13:05:42;17.98;;;4.25;;
18304;SDS011;9278;52.156;21.048;2023-02-01T13:08:16;17.50;;;4.30;;
18304;SDS011;9278;52.156;21.048;2023-02-01T13:10:51;25.85;;;4.85;;
18304;SDS011;9278;52.156;21.048;2023-02-01T13:13:28;21.88;;;4.80;;
18304;SDS011;9278;52.156;21.048;2023-02-01T13:16:02;21.65;;;4.57;;
18304;SDS011;9278;52.156;21.048;2023-02-01T13:18:38;19.65;;;4.05;;
18304;SDS011;9278;52.156;21.048;2023-02-01T13:21:10;25.83;;;4.90;;
18304;SDS011;9278;52.156;21.048;2023-02-01T13:23:43;18.38;;;4.10;;
18304;SDS011;9278;52.156;21.048;2023-02-01T13:26:14;24.48;;;4.60;;
18304;SDS011;9278;52.156;21.048;2023-02-01T13:28:44;21.35;;;4.70;;
18304;SDS011;9278;52.156;21.048;2023-02-01T13:31:33;18.40;;;4.97;;
18304;SDS011;9278;52.156;21.048;2023-02-01T13:34:31;18.27;;;4.13;;
18304;SDS011;9278;52.156;21.048;2023-02-01T13:37:17;24.88;;;4.65;;
18304;SDS011;9278;52.156;21.048;2023-02-01T13:40:12;18.90;;;4.55;;
18304;SDS011;9278;52.156;21.048;2023-02-01T13:42:49;21.60;;;4.30;;
18304;SDS011;9278;52.156;21.048;2023-02-01T13:45:22;16.30;;;3.72;;
18304;SDS011;9278;52.156;21.048;2023-02-01T13:47:54;16.50;;;3.75;;
18304;SDS011;9278;52.156;21.048;2023-02-01T13:50:26;18.77;;;4.20;;
18304;SDS011;9278;52.156;21.048;2023-02-01T13:52:58;19.73;;;4.18;;
18304;SDS011;9278;52.156;21.048;2023-02-01T13:55:29;15.23;;;3.85;;
18304;SDS011;9278;52.156;21.048;2023-02-01T13:58:01;16.05;;;3.75;;
18304;SDS011;9278;52.156;21.048;2023-02-01T14:00:35;16.17;;;3.70;;
18304;SDS011;9278;52.156;21.048;2023-02-01T14:03:09;13.23;;;3.67;;
18304;SDS011;9278;52.156;21.048;2023-02-01T14:06:01;16.63;;;4.57;;
18304;SDS011;9278;52.156;21.048;2023-02-01T14:08:43;11.23;;;3.60;;
18304;SDS011;9278;52.156;21.048;2023-02-01T14:11:33;17.13;;;3.78;;
18304;SDS011;9278;52.156;21.048;2023-02-01T14:23:22;12.57;;;3.55;;
18304;SDS011;9278;52.156;21.048;2023-02-01T14:26:09;13.00;;;4.00;;
18304;SDS011;9278;52.156;21.048;2023-02-01T14:28:44;12.10;;;4.20;;
18304;SDS011;9278;52.156;21.048;2023-02-01T14:31:35;17.02;;;4.38;;
18304;SDS011;9278;52.156;21.048;2023-02-01T14:34:13;16.52;;;4.05;;
18304;SDS011;9278;52.156;21.048;2023-02-01T14:36:47;14.45;;;3.90;;
18304;SDS011;9278;52.156;21.048;2023-02-01T14:39:19;10.60;;;4.07;;
18304;SDS011;9278;52.156;21.048;2023-02-01T14:41:51;11.43;;;3.55;;
18304;SDS011;9278;52.156;21.048;2023-02-01T14:47:27;13.52;;;3.80;;
18304;SDS011;9278;52.156;21.048;2023-02-01T14:50:10;13.52;;;3.90;;
18304;SDS011;9278;52.156;21.048;2023-02-01T14:52:51;13.23;;;3.90;;
18304;SDS011;9278;52.156;21.048;2023-02-01T14:55:41;13.60;;;3.83;;
18304;SDS011;9278;52.156;21.048;2023-02-01T14:58:16;17.90;;;4.35;;
18304;SDS011;9278;52.156;21.048;2023-02-01T15:01:00;12.38;;;3.80;;
18304;SDS011;9278;52.156;21.048;2023-02-01T15:06:24;13.97;;;3.87;;
18304;SDS011;9278;52.156;21.048;2023-02-01T15:08:59;12.48;;;3.70;;
18304;SDS011;9278;52.156;21.048;2023-02-01T15:11:30;12.95;;;3.67;;
18304;SDS011;9278;52.156;21.048;2023-02-01T15:13:58;6.93;;;3.67;;
18304;SDS011;9278;52.156;21.048;2023-02-01T15:16:27;9.65;;;3.25;;
18304;SDS011;9278;52.156;21.048;2023-02-01T15:19:09;16.70;;;4.13;;
18304;SDS011;9278;52.156;21.048;2023-02-01T15:21:46;11.25;;;3.78;;
18304;SDS011;9278;52.156;21.048;2023-02-01T15:24:20;8.40;;;3.88;;
18304;SDS011;9278;52.156;21.048;2023-02-01T15:26:49;11.00;;;4.10;;
18304;SDS011;9278;52.156;21.048;2023-02-01T15:29:18;9.48;;;4.05;;
18304;SDS011;9278;52.156;21.048;2023-02-01T15:31:49;14.77;;;4.50;;
18304;SDS011;9278;52.156;21.048;2023-02-01T15:34:20;12.43;;;4.50;;
18304;SDS011;9278;52.156;21.048;2023-02-01T15:36:50;11.07;;;3.83;;
18304;SDS011;9278;52.156;21.048;2023-02-01T15:39:29;12.30;;;4.17;;
18304;SDS011;9278;52.156;21.048;2023-02-01T15:41:59;11.93;;;4.17;;
18304;SDS011;9278;52.156;21.048;2023-02-01T15:44:38;11.20;;;4.55;;
18304;SDS011;9278;52.156;21.048;2023-02-01T15:47:08;10.63;;;4.13;;
18304;SDS011;9278;52.156;21.048;2023-02-01T15:49:43;11.63;;;4.43;;